createdAt,value
2018-05-16T00:00:17.468Z,18.00
2018-05-16T00:04:27.649Z,18.00
2018-05-16T00:08:34.037Z,18.00
2018-05-16T00:12:43.834Z,17.90
2018-05-16T00:16:49.771Z,17.90
2018-05-16T00:21:00.822Z,17.80
2018-05-16T00:25:07.280Z,17.80
2018-05-16T00:29:19.890Z,17.80
2018-05-16T00:33:29.434Z,17.70
2018-05-16T00:37:35.794Z,17.70
2018-05-16T00:41:45.699Z,17.70
2018-05-16T00:45:55.769Z,17.60
2018-05-16T00:49:59.635Z,17.30
2018-05-16T00:54:11.078Z,17.20
2018-05-16T00:58:21.796Z,17.10
2018-05-16T01:02:27.448Z,17.00
2018-05-16T01:06:37.370Z,16.80
2018-05-16T01:10:41.275Z,16.70
2018-05-16T01:14:52.679Z,16.70
2018-05-16T01:19:00.197Z,16.40
2018-05-16T01:23:13.115Z,16.40
2018-05-16T01:27:19.544Z,16.30
2018-05-16T01:31:29.859Z,16.30
2018-05-16T01:35:35.415Z,16.30
2018-05-16T01:39:48.410Z,16.20
2018-05-16T01:43:57.265Z,16.10
2018-05-16T01:48:03.762Z,16.10
2018-05-16T01:52:11.383Z,15.70
2018-05-16T01:56:21.597Z,15.60
2018-05-16T02:00:32.700Z,15.60
2018-05-16T02:04:35.508Z,15.60
2018-05-16T02:08:46.316Z,15.50
2018-05-16T02:12:53.539Z,15.40
2018-05-16T02:17:07.315Z,15.30
2018-05-16T02:21:12.665Z,15.30
2018-05-16T02:25:21.395Z,15.30
2018-05-16T02:29:33.276Z,15.30
2018-05-16T02:33:39.098Z,15.20
2018-05-16T02:37:46.397Z,15.20
2018-05-16T02:41:59.860Z,15.10
2018-05-16T02:46:06.521Z,15.10
2018-05-16T02:50:15.293Z,15.10
2018-05-16T02:54:22.958Z,15.20
2018-05-16T02:58:32.450Z,15.30
2018-05-16T03:02:41.656Z,15.30
2018-05-16T03:06:47.274Z,15.30
2018-05-16T03:10:54.466Z,15.30
2018-05-16T03:15:03.988Z,15.20
2018-05-16T03:19:16.752Z,15.20
2018-05-16T03:23:21.650Z,15.10
2018-05-16T03:27:34.634Z,15.10
2018-05-16T03:31:44.254Z,15.00
2018-05-16T03:35:46.883Z,15.00
2018-05-16T03:39:59.254Z,14.90
2018-05-16T03:44:08.773Z,14.80
2018-05-16T03:48:19.019Z,14.70
2018-05-16T03:52:24.678Z,14.70
2018-05-16T03:56:34.348Z,14.70
2018-05-16T04:00:48.986Z,14.60
2018-05-16T04:04:53.824Z,14.60
2018-05-16T04:08:57.543Z,14.50
2018-05-16T04:13:08.599Z,14.50
2018-05-16T04:17:17.703Z,14.50
2018-05-16T04:21:27.482Z,14.50
2018-05-16T04:25:33.148Z,14.50
2018-05-16T04:29:43.957Z,14.50
2018-05-16T04:33:53.977Z,14.40
2018-05-16T04:37:59.745Z,14.40
2018-05-16T04:42:07.286Z,14.30
2018-05-16T04:46:24.903Z,14.30
2018-05-16T04:50:34.660Z,14.10
2018-05-16T04:54:45.041Z,14.10
2018-05-16T04:59:01.641Z,14.10
2018-05-16T05:03:08.014Z,14.20
2018-05-16T05:07:20.852Z,14.20
2018-05-16T05:11:30.037Z,14.10
2018-05-16T05:15:35.657Z,14.10
2018-05-16T05:19:46.190Z,14.00
2018-05-16T05:23:55.601Z,13.90
2018-05-16T05:28:01.875Z,13.90
2018-05-16T05:32:08.249Z,13.90
2018-05-16T05:36:17.262Z,14.00
2018-05-16T05:40:25.804Z,14.10
2018-05-16T05:44:35.623Z,14.20
2018-05-16T05:48:44.888Z,14.30
2018-05-16T05:52:54.442Z,14.50
2018-05-16T05:57:01.989Z,14.70
2018-05-16T06:01:10.698Z,14.70
2018-05-16T06:05:21.814Z,14.80
2018-05-16T06:09:34.258Z,14.90
2018-05-16T06:13:40.896Z,15.00
2018-05-16T06:17:51.757Z,15.20
2018-05-16T06:21:57.392Z,15.30
2018-05-16T06:26:07.247Z,15.50
2018-05-16T06:34:14.466Z,16.00
2018-05-16T06:38:30.994Z,15.90
2018-05-16T06:42:37.354Z,16.10
2018-05-16T06:46:40.888Z,16.30
2018-05-16T06:50:50.329Z,16.30
2018-05-16T06:54:59.598Z,16.40
2018-05-16T06:59:08.662Z,16.50
2018-05-16T07:03:18.459Z,17.00
2018-05-16T07:07:22.214Z,17.10
2018-05-16T07:11:31.703Z,17.20
2018-05-16T07:15:41.330Z,17.30
2018-05-16T07:19:50.597Z,17.30
2018-05-16T07:23:58.886Z,17.40
2018-05-16T07:28:07.975Z,17.50
2018-05-16T07:32:18.103Z,17.70
2018-05-16T07:36:28.119Z,18.00
2018-05-16T07:40:34.467Z,18.00
2018-05-16T07:44:44.347Z,18.00
2018-05-16T07:48:54.394Z,18.10
2018-05-16T07:53:03.555Z,18.00
2018-05-16T07:57:12.366Z,18.10
2018-05-16T08:01:15.565Z,18.10
2018-05-16T08:05:26.170Z,18.30
2018-05-16T08:09:38.920Z,18.30
2018-05-16T08:13:48.426Z,18.50
2018-05-16T08:17:57.584Z,18.50
2018-05-16T08:22:06.650Z,18.80
2018-05-16T08:26:16.653Z,18.80
2018-05-16T08:30:22.815Z,18.90
2018-05-16T08:34:33.140Z,19.10
2018-05-16T08:38:38.998Z,19.20
2018-05-16T08:42:50.187Z,19.50
2018-05-16T08:46:55.846Z,19.50
2018-05-16T08:51:11.163Z,19.50
2018-05-16T08:55:15.168Z,19.60
2018-05-16T08:59:25.276Z,19.70
2018-05-16T09:03:34.923Z,19.70
2018-05-16T09:07:45.232Z,19.70
2018-05-16T09:11:51.604Z,19.70
2018-05-16T09:16:01.625Z,19.90
2018-05-16T09:20:09.595Z,20.20
2018-05-16T09:24:18.477Z,20.20
2018-05-16T09:28:27.283Z,20.40
2018-05-16T09:32:36.920Z,20.60
2018-05-16T09:36:43.397Z,20.60
2018-05-16T09:40:52.214Z,20.60
2018-05-16T09:45:03.398Z,20.50
2018-05-16T09:49:09.768Z,20.50
2018-05-16T09:53:19.751Z,20.70
2018-05-16T09:57:29.725Z,20.70
2018-05-16T10:01:36.100Z,20.70
2018-05-16T10:05:45.834Z,20.70
2018-05-16T10:09:54.765Z,20.80
2018-05-16T10:14:04.553Z,20.90
2018-05-16T10:18:10.737Z,21.20
2018-05-16T10:22:20.873Z,21.30
2018-05-16T10:26:30.644Z,21.50
2018-05-16T10:30:37.255Z,21.60
2018-05-16T10:34:46.881Z,21.50
2018-05-16T10:38:56.768Z,21.40
2018-05-16T10:43:06.771Z,21.50
2018-05-16T10:47:13.140Z,21.50
2018-05-16T10:51:24.651Z,21.50
2018-05-16T10:55:34.709Z,21.60
2018-05-16T10:59:41.636Z,21.70
2018-05-16T11:03:50.293Z,21.70
2018-05-16T11:08:00.638Z,21.60
2018-05-16T11:12:06.222Z,21.70
2018-05-16T11:16:16.868Z,21.90
2018-05-16T11:20:26.110Z,21.90
2018-05-16T11:24:39.708Z,22.40
2018-05-16T11:28:51.520Z,22.70
2018-05-16T11:32:54.928Z,22.60
2018-05-16T11:37:04.924Z,22.40
2018-05-16T11:41:10.792Z,22.50
2018-05-16T11:45:21.163Z,22.60
2018-05-16T11:49:31.783Z,23.00
2018-05-16T11:53:37.432Z,23.20
2018-05-16T11:57:48.135Z,23.40
2018-05-16T12:01:58.157Z,23.60
2018-05-16T12:06:07.570Z,23.70
2018-05-16T12:10:20.257Z,24.10
2018-05-16T12:14:29.556Z,24.40
2018-05-16T12:18:39.618Z,24.30
2018-05-16T12:22:51.924Z,24.10
2018-05-16T12:26:56.671Z,24.20
2018-05-16T12:31:08.862Z,24.20
2018-05-16T12:39:43.196Z,24.30
2018-05-16T12:44:03.835Z,24.80
2018-05-16T12:48:14.690Z,25.00
2018-05-16T12:52:20.663Z,24.90
2018-05-16T12:56:33.767Z,24.50
2018-05-16T13:00:39.653Z,24.50
2018-05-16T13:04:52.133Z,24.50
2018-05-16T13:08:58.413Z,24.60
2018-05-16T13:13:08.390Z,24.30
2018-05-16T13:17:12.662Z,24.40
2018-05-16T13:21:25.860Z,24.30
2018-05-16T13:25:32.269Z,24.30
2018-05-16T13:29:42.203Z,24.40
2018-05-16T13:33:52.474Z,24.40
2018-05-16T13:37:59.205Z,24.50
2018-05-16T13:42:06.509Z,24.50
2018-05-16T13:46:15.649Z,24.50
2018-05-16T13:50:26.352Z,24.50
2018-05-16T13:54:32.855Z,24.30
2018-05-16T13:58:44.175Z,23.90
2018-05-16T14:02:48.542Z,23.90
2018-05-16T14:06:58.191Z,23.20
2018-05-16T14:11:07.720Z,22.80
2018-05-16T14:15:17.966Z,22.80
2018-05-16T14:19:30.603Z,22.80
2018-05-16T14:23:38.032Z,22.10
2018-05-16T14:27:48.614Z,22.00
2018-05-16T14:31:58.600Z,22.00
2018-05-16T14:36:08.538Z,22.10
2018-05-16T14:40:13.242Z,21.90
2018-05-16T14:44:24.112Z,21.40
2018-05-16T14:48:34.633Z,21.40
2018-05-16T14:52:43.256Z,20.70
2018-05-16T14:56:53.679Z,20.50
2018-05-16T15:01:06.755Z,20.80
2018-05-16T15:05:30.322Z,21.30
2018-05-16T15:09:42.526Z,21.90
2018-05-16T15:14:04.405Z,22.40
2018-05-16T15:18:08.801Z,22.70
2018-05-16T15:22:11.660Z,22.90
2018-05-16T15:26:22.848Z,23.20
2018-05-16T15:30:32.318Z,23.20
2018-05-16T15:34:38.723Z,23.50
2018-05-16T15:38:52.274Z,23.40
2018-05-16T15:42:58.943Z,23.40
2018-05-16T15:47:05.285Z,23.40
2018-05-16T15:51:19.098Z,23.30
2018-05-16T15:55:27.539Z,23.50
2018-05-16T16:04:17.236Z,24.00
2018-05-16T16:08:23.363Z,23.90
2018-05-16T16:12:34.219Z,23.80
2018-05-16T16:21:14.838Z,23.50
2018-05-16T16:25:19.207Z,22.70
2018-05-16T16:29:22.879Z,22.70
2018-05-16T16:33:28.435Z,22.40
2018-05-16T16:37:39.561Z,22.00
2018-05-16T16:41:49.091Z,21.60
2018-05-16T16:45:55.808Z,21.30
2018-05-16T16:50:05.693Z,21.20
2018-05-16T16:54:14.891Z,21.20
2018-05-16T16:58:21.296Z,21.20
2018-05-16T17:02:30.596Z,21.20
2018-05-16T17:06:43.118Z,21.00
2018-05-16T17:10:51.640Z,20.70
2018-05-16T17:15:01.976Z,20.60
2018-05-16T17:19:07.636Z,20.60
2018-05-16T17:23:20.289Z,20.60
2018-05-16T17:27:26.643Z,20.60
2018-05-16T17:31:35.987Z,20.60
2018-05-16T17:35:50.497Z,20.50
2018-05-16T17:39:57.284Z,20.40
2018-05-16T17:44:06.399Z,20.40
2018-05-16T17:48:17.143Z,20.10
2018-05-16T17:52:26.570Z,20.00
2018-05-16T17:56:32.252Z,20.00
2018-05-16T18:00:42.282Z,19.90
2018-05-16T18:04:54.907Z,19.70
2018-05-16T18:09:10.182Z,19.60
2018-05-16T18:13:33.630Z,19.40
2018-05-16T18:17:42.561Z,19.20
2018-05-16T18:22:04.657Z,19.00
2018-05-16T18:26:15.282Z,18.60
2018-05-16T18:30:21.907Z,18.60
2018-05-16T18:34:33.424Z,18.50
2018-05-16T18:38:42.649Z,18.50
2018-05-16T18:42:48.516Z,18.20
2018-05-16T18:46:55.753Z,17.70
2018-05-16T18:51:12.613Z,17.70
2018-05-16T18:55:17.367Z,17.30
2018-05-16T18:59:27.305Z,17.30
2018-05-16T19:03:33.722Z,17.10
2018-05-16T19:07:44.843Z,16.80
2018-05-16T19:11:48.261Z,16.80
2018-05-16T19:16:01.718Z,16.70
2018-05-16T19:20:14.873Z,16.70
2018-05-16T19:24:24.679Z,16.70
2018-05-16T19:28:34.751Z,16.60
2018-05-16T19:32:41.181Z,16.50
2018-05-16T19:36:49.897Z,16.50
2018-05-16T19:40:56.247Z,16.40
2018-05-16T19:45:09.658Z,16.20
2018-05-16T19:49:15.756Z,16.10
2018-05-16T19:53:28.583Z,16.00
2018-05-16T19:57:35.875Z,15.70
2018-05-16T20:01:45.295Z,15.70
2018-05-16T20:05:51.501Z,15.60
2018-05-16T20:10:07.113Z,15.50
2018-05-16T20:14:13.179Z,15.40
2018-05-16T20:18:19.988Z,15.40
2018-05-16T20:22:29.640Z,15.40
2018-05-16T20:26:39.454Z,15.30
2018-05-16T20:30:48.862Z,15.20
2018-05-16T20:34:55.211Z,15.20
2018-05-16T20:39:05.929Z,15.10
2018-05-16T20:43:24.890Z,15.10
2018-05-16T20:47:37.898Z,15.00
2018-05-16T20:51:47.102Z,15.10
2018-05-16T20:55:53.607Z,15.00
2018-05-16T21:00:06.323Z,14.90
2018-05-16T21:04:15.529Z,14.80
2018-05-16T21:08:26.603Z,14.80
2018-05-16T21:12:32.302Z,14.70
2018-05-16T21:16:41.835Z,14.70
2018-05-16T21:20:50.917Z,14.60
2018-05-16T21:24:57.417Z,14.40
2018-05-16T21:29:08.382Z,14.40
2018-05-16T21:33:17.728Z,14.10
2018-05-16T21:37:26.922Z,14.10
2018-05-16T21:41:32.656Z,14.00
2018-05-16T21:45:42.884Z,13.80
2018-05-16T21:49:52.586Z,13.80
2018-05-16T21:54:02.199Z,13.80
2018-05-16T21:58:07.832Z,13.80
2018-05-16T22:02:18.125Z,13.70
2018-05-16T22:06:28.122Z,13.70
2018-05-16T22:10:37.374Z,13.60
2018-05-16T22:14:46.870Z,13.50
2018-05-16T22:18:53.189Z,13.50
2018-05-16T22:23:03.905Z,13.50
2018-05-16T22:27:12.983Z,13.40
2018-05-16T22:31:27.477Z,13.30
2018-05-16T22:35:37.108Z,13.30
2018-05-16T22:39:45.788Z,13.30
2018-05-16T22:43:55.492Z,13.10
2018-05-16T22:47:59.168Z,13.00
2018-05-16T22:52:08.830Z,13.00
2018-05-16T22:56:14.843Z,13.00
2018-05-16T23:00:25.669Z,12.90
2018-05-16T23:04:34.984Z,12.80
2018-05-16T23:08:46.403Z,12.80
2018-05-16T23:12:52.816Z,12.70
2018-05-16T23:17:01.924Z,12.60
2018-05-16T23:21:09.031Z,12.40
2018-05-16T23:25:20.022Z,12.30
2018-05-16T23:29:30.403Z,12.30
2018-05-16T23:33:36.394Z,12.30
2018-05-16T23:37:47.391Z,12.20
2018-05-16T23:41:51.610Z,12.10
2018-05-16T23:46:04.402Z,12.10
2018-05-16T23:50:16.098Z,12.00
2018-05-16T23:54:22.051Z,12.00
2018-05-16T23:58:37.541Z,12.00
